Meteo – Situazione

Stazione Meteo G.A.P.
Ultimo aggiornamento 2021-08-05 17:30:31 Z

Vento da (gradi)
Velocità del vento (Km/h)
Temperatura (C°)
Pressione Barometrica (hPa)
Umidità (%)
Visibilità (mt)
Copertura Nuvolosa (%)
Pioggia nelle ultime 3 ore (mm)
Neve nelle ultime 3 ore (cm)

METAR Aeroporti Vicini

Pratica di Mare

LIRE 051655Z 28014KT CAVOK 25/21 Q1010 RMK BKN SCT100 SCT200 VIS MIN 9999 WIND THR13 29010KT WIND THR31 /////KT BLU

Roma Fiumicino

LIRF 051720Z 26011KT CAVOK 26/19 Q1009 NOSIG

Roma Ciampino

LIRA 051720Z 27007KT 240V300 CAVOK 27/14 Q1010

Latina

LIRL 051655Z 29006KT 9999 FEW025 27/20 Q1010

Guidonia

LIRG 051655Z 22007KT 9999 FEW040 26/12 Q1010

Roma Urbe

LIRU 051650Z 26010KT CAVOK 27/15 Q1009

Comments are closed.